Wind from 280 at 10 knots

Air temperature 6.5° C
Dewpoint 6.5° C

Last reported at 2014-Apr-17 11:00 UTC.
Time now 2014-Apr-17 12:38 UTC

Location: N 61°18' E 001°42'.
View on Google Maps.

See reports from other nearby stations

Tides Stations Pressure Air Temp Water Temp Dewpoint Dewpoint depression Visibility Wind Speed Wind Dir Waves Ship positions

  
sailing weather and tide predictions

Current Weather: station 63114

date/time (UTC)wind fromknots sea level pressurealtimeterstation pressurevisibilityair tempwater tempwave heightnotes
2014-Apr-17 11:00 280 10 6.5
2014-Apr-17 10:00 240 8 5.8
2014-Apr-17 09:00 280 11 4.9
2014-Apr-17 08:00 250 11 6.2
2014-Apr-17 07:00 260 12 5.7
2014-Apr-17 06:00 220 12 6.1
2014-Apr-17 05:00 230 13 5.7
2014-Apr-17 04:00 260 15 5.2
2014-Apr-17 03:00 200 26 7.0
2014-Apr-17 02:00 200 27 7.2
2014-Apr-17 01:00 200 27 7.1
2014-Apr-17 00:00 200 27 6.9
2014-Apr-16 23:00 210 27 6.9
2014-Apr-16 22:00 210 26 7.0
2014-Apr-16 21:00 210 26 7.1
2014-Apr-16 08:00 200 30 7.8
2014-Apr-16 07:00 190 30 7.4
2014-Apr-16 06:00 190 31 7.2
2014-Apr-16 05:00 190 31 7.1
2014-Apr-16 04:00 200 33 6.9
2014-Apr-16 03:00 200 27 7.0
2014-Apr-16 02:00 200 29 7.1
2014-Apr-16 01:00 200 27 7.2
2014-Apr-16 00:00 200 26 7.2
2014-Apr-15 23:00 210 25 7.2
2014-Apr-15 22:00 200 27 7.1
2014-Apr-15 21:00 200 26 7.0
2014-Apr-15 20:00 200 25 7.0
2014-Apr-15 19:00 200 25 6.8
2014-Apr-15 18:00 200 25 6.8
2014-Apr-15 17:00 210 25 6.7
2014-Apr-15 16:00 210 24 6.9
2014-Apr-15 15:00 210 23 6.8
2014-Apr-15 14:00 210 23 6.8
2014-Apr-15 13:00 210 22 6.7
2014-Apr-15 12:00 220 20 6.7